Time;durP1;ratioP1;P1;durP2;ratioP2;P2;SDS_P1;SDS_P2;PMS_P1;PMS_P2;Temp;Humidity;BMP_temperature;BMP_pressure;BME280_temperature;BME280_humidity;BME280_pressure;Samples;Min_cycle;Max_cycle;Signal;HPM_P1;HPM_P2
2024/01/30 00:00:18;;;;;;;16.13;9.25;;;1.40;99.90;;;;;;5053443;28;20307;-71
2024/01/30 00:02:46;;;;;;;19.33;9.75;;;1.30;99.90;;;;;;5061275;28;21109;-71
2024/01/30 00:05:15;;;;;;;19.60;9.52;;;1.30;99.90;;;;;;5061993;28;20236;-71
2024/01/30 00:07:42;;;;;;;20.30;9.40;;;1.20;99.90;;;;;;5061278;28;20211;-70
2024/01/30 00:10:11;;;;;;;17.42;9.63;;;1.10;99.90;;;;;;5059016;28;20760;-71
2024/01/30 00:12:40;;;;;;;17.40;9.57;;;1.10;99.90;;;;;;5062522;28;20211;-70
2024/01/30 00:15:11;;;;;;;17.90;9.18;;;1.10;99.90;;;;;;5063235;28;20457;-71
2024/01/30 00:17:39;;;;;;;20.45;9.93;;;1.10;99.90;;;;;;5065311;28;20239;-70
2024/01/30 00:20:08;;;;;;;19.40;8.73;;;1.20;99.90;;;;;;5065233;28;20734;-71
2024/01/30 00:22:37;;;;;;;19.48;10.73;;;1.10;99.90;;;;;;5059954;28;21001;-71
2024/01/30 00:25:05;;;;;;;19.70;9.80;;;1.00;99.90;;;;;;5065313;28;20218;-72
2024/01/30 00:27:33;;;;;;;18.17;10.02;;;1.00;99.90;;;;;;5066151;28;20211;-71
2024/01/30 00:30:02;;;;;;;18.02;10.00;;;1.10;99.90;;;;;;5065507;28;20764;-70
2024/01/30 00:32:30;;;;;;;19.77;9.75;;;1.30;99.90;;;;;;5064590;28;20211;-71
2024/01/30 00:34:58;;;;;;;16.27;8.93;;;1.30;99.90;;;;;;5065860;28;20207;-71
2024/01/30 00:37:26;;;;;;;20.35;10.20;;;1.20;99.90;;;;;;5066125;28;20213;-71
2024/01/30 00:39:54;;;;;;;17.70;9.80;;;1.20;99.90;;;;;;5065613;28;20262;-70
2024/01/30 00:42:23;;;;;;;18.63;10.63;;;1.30;99.90;;;;;;5064830;28;20232;-72
2024/01/30 00:44:51;;;;;;;22.05;10.10;;;1.30;99.90;;;;;;5065739;28;20268;-71
2024/01/30 00:47:23;;;;;;;19.02;10.30;;;1.40;99.90;;;;;;5061513;28;20581;-72
2024/01/30 00:49:51;;;;;;;19.50;10.15;;;1.40;99.90;;;;;;5065348;28;20227;-71
2024/01/30 00:52:19;;;;;;;20.25;9.55;;;1.40;99.90;;;;;;5064707;28;20256;-71
2024/01/30 00:54:47;;;;;;;20.30;10.27;;;1.40;99.90;;;;;;5065964;28;20284;-71
2024/01/30 00:57:14;;;;;;;17.25;9.90;;;1.40;99.90;;;;;;5066362;28;20602;-70
2024/01/30 00:59:42;;;;;;;16.90;8.75;;;1.40;99.90;;;;;;5065703;28;20295;-71
2024/01/30 01:02:10;;;;;;;17.70;9.13;;;1.30;99.90;;;;;;5064400;28;20577;-71
2024/01/30 01:04:39;;;;;;;15.90;7.88;;;1.40;99.90;;;;;;5065952;28;20543;-71
2024/01/30 01:07:07;;;;;;;18.17;8.90;;;1.40;99.90;;;;;;5065913;28;20310;-71
2024/01/30 01:09:35;;;;;;;15.23;8.10;;;1.40;99.90;;;;;;5065424;28;20847;-71
2024/01/30 01:12:02;;;;;;;15.27;8.25;;;1.40;99.90;;;;;;5063369;28;20227;-70
2024/01/30 01:14:30;;;;;;;20.08;9.93;;;1.40;99.90;;;;;;5064381;28;20917;-71
2024/01/30 01:16:58;;;;;;;14.90;8.07;;;1.40;99.90;;;;;;5064337;28;20876;-71
2024/01/30 01:19:26;;;;;;;15.65;8.63;;;1.40;99.90;;;;;;5064703;28;20885;-72
2024/01/30 01:21:59;;;;;;;16.85;9.13;;;1.40;99.90;;;;;;5063320;28;20656;-72
2024/01/30 01:24:27;;;;;;;19.57;9.20;;;1.50;99.90;;;;;;5064157;28;20993;-71
2024/01/30 01:26:55;;;;;;;16.67;9.38;;;1.50;99.90;;;;;;5064326;28;20918;-71
2024/01/30 01:29:28;;;;;;;16.33;8.97;;;1.50;99.90;;;;;;5064632;28;20228;-72
2024/01/30 01:31:56;;;;;;;18.23;9.25;;;1.50;99.90;;;;;;5062580;28;20473;-71
2024/01/30 01:34:24;;;;;;;15.90;8.10;;;1.50;99.90;;;;;;5063975;28;20207;-71
2024/01/30 01:36:58;;;;;;;17.75;8.77;;;1.50;99.90;;;;;;5066693;28;20202;-71
2024/01/30 01:39:26;;;;;;;16.02;7.82;;;1.50;99.90;;;;;;5067230;28;20740;-71
2024/01/30 01:41:54;;;;;;;16.95;9.10;;;1.40;99.90;;;;;;5068413;28;20213;-71
2024/01/30 01:44:23;;;;;;;16.30;8.60;;;1.30;99.90;;;;;;5068368;28;20776;-72
2024/01/30 01:46:52;;;;;;;20.47;8.87;;;1.40;99.90;;;;;;5068726;28;20455;-71
2024/01/30 01:49:21;;;;;;;14.43;7.72;;;1.40;99.90;;;;;;5068753;28;20475;-70
2024/01/30 01:51:52;;;;;;;18.73;9.30;;;1.30;99.90;;;;;;5067404;28;20212;-71
2024/01/30 01:54:22;;;;;;;18.50;9.40;;;1.30;99.90;;;;;;5068566;28;20688;-71
2024/01/30 01:56:50;;;;;;;14.50;8.43;;;1.40;99.90;;;;;;5068527;28;20211;-71
2024/01/30 01:59:19;;;;;;;17.60;9.02;;;1.40;99.90;;;;;;5068305;28;20230;-71
2024/01/30 02:01:49;;;;;;;16.98;9.25;;;1.40;99.90;;;;;;5067543;28;20627;-70
2024/01/30 02:04:17;;;;;;;14.30;7.53;;;1.20;99.90;;;;;;5068435;28;20224;-71
2024/01/30 02:06:45;;;;;;;17.42;8.75;;;1.00;99.90;;;;;;5068707;28;20303;-70
2024/01/30 02:09:13;;;;;;;14.90;8.60;;;1.00;99.90;;;;;;5068154;28;20228;-71
2024/01/30 02:11:43;;;;;;;16.85;8.52;;;1.10;99.90;;;;;;5066934;28;20205;-71
2024/01/30 02:14:10;;;;;;;16.27;8.13;;;1.10;99.90;;;;;;5067940;28;20206;-70
2024/01/30 02:16:38;;;;;;;14.80;7.38;;;1.10;99.90;;;;;;5068574;28;20697;-71
2024/01/30 02:19:07;;;;;;;15.18;9.02;;;1.20;99.90;;;;;;5068544;28;20309;-71
2024/01/30 02:21:37;;;;;;;18.10;8.23;;;1.00;99.90;;;;;;5067227;28;20223;-71
2024/01/30 02:24:06;;;;;;;16.92;8.13;;;0.90;99.90;;;;;;5068266;28;20275;-72
2024/01/30 02:26:34;;;;;;;16.35;8.27;;;0.80;99.90;;;;;;5067663;28;20554;-70
2024/01/30 02:29:02;;;;;;;20.75;8.70;;;0.90;99.90;;;;;;5066769;28;20315;-71
2024/01/30 02:31:30;;;;;;;18.42;8.90;;;1.00;99.90;;;;;;5066330;28;20727;-70
2024/01/30 02:33:58;;;;;;;19.13;9.05;;;1.00;99.90;;;;;;5066978;28;20202;-71
2024/01/30 02:36:26;;;;;;;18.25;9.57;;;1.00;99.90;;;;;;5067052;28;20751;-71
2024/01/30 02:38:55;;;;;;;16.95;8.20;;;0.90;99.90;;;;;;5067136;28;20232;-71
2024/01/30 02:41:23;;;;;;;17.33;8.80;;;0.90;99.90;;;;;;5065997;28;20217;-71
2024/01/30 02:43:51;;;;;;;17.50;9.75;;;0.80;99.90;;;;;;5070405;28;20274;-70
2024/01/30 02:46:20;;;;;;;21.70;9.43;;;0.90;99.90;;;;;;5069355;28;20622;-71
2024/01/30 02:48:47;;;;;;;17.83;9.15;;;0.90;99.90;;;;;;5065914;28;20795;-71
2024/01/30 02:51:16;;;;;;;19.58;10.05;;;0.80;99.90;;;;;;5066027;28;20296;-71
2024/01/30 02:53:43;;;;;;;18.23;9.90;;;0.80;99.90;;;;;;5066440;28;20268;-71
2024/01/30 02:56:13;;;;;;;19.38;9.70;;;0.80;99.90;;;;;;5065839;28;20211;-71
2024/01/30 02:58:41;;;;;;;19.83;11.13;;;0.70;99.90;;;;;;5067875;28;20260;-71
2024/01/30 03:01:09;;;;;;;19.60;10.52;;;0.70;99.90;;;;;;5066219;28;20327;-71
2024/01/30 03:03:37;;;;;;;19.73;10.00;;;0.70;99.90;;;;;;5065937;28;20250;-72
2024/01/30 03:06:06;;;;;;;19.60;10.43;;;0.70;99.90;;;;;;5066382;28;20327;-71
2024/01/30 03:08:35;;;;;;;19.30;10.20;;;0.70;99.90;;;;;;5066256;28;20722;-71
2024/01/30 03:11:02;;;;;;;17.73;10.27;;;0.70;99.90;;;;;;5065208;28;20755;-72
2024/01/30 03:13:32;;;;;;;18.25;10.25;;;0.70;99.90;;;;;;5065201;28;20246;-72
2024/01/30 03:16:00;;;;;;;21.08;10.75;;;0.60;99.90;;;;;;5065647;28;20606;-71
2024/01/30 03:18:27;;;;;;;22.95;9.90;;;0.50;99.90;;;;;;5066040;28;20296;-71
2024/01/30 03:20:55;;;;;;;17.80;10.63;;;0.40;99.90;;;;;;5065406;28;20674;-71
2024/01/30 03:23:23;;;;;;;17.95;10.50;;;0.40;99.90;;;;;;5065696;28;20699;-71
2024/01/30 03:25:51;;;;;;;20.80;10.35;;;0.30;99.90;;;;;;5065811;28;21024;-71
2024/01/30 03:28:19;;;;;;;19.50;11.05;;;0.30;99.90;;;;;;5065479;28;20226;-71
2024/01/30 03:30:48;;;;;;;20.33;10.23;;;0.30;99.90;;;;;;5065954;28;20297;-72
2024/01/30 03:33:16;;;;;;;21.17;11.70;;;0.30;99.90;;;;;;5066252;28;20218;-71
2024/01/30 03:35:44;;;;;;;20.55;10.85;;;0.30;99.90;;;;;;5066311;28;20208;-70
2024/01/30 03:38:12;;;;;;;18.38;10.05;;;0.40;99.90;;;;;;5067842;28;20270;-72
2024/01/30 03:40:40;;;;;;;22.55;11.65;;;0.40;99.90;;;;;;5067674;28;20260;-71
2024/01/30 03:43:08;;;;;;;21.70;11.18;;;0.30;99.90;;;;;;5068421;28;20893;-71
2024/01/30 03:45:36;;;;;;;18.38;10.43;;;0.30;99.90;;;;;;5069426;28;20232;-71
2024/01/30 03:48:07;;;;;;;22.10;11.65;;;0.30;99.90;;;;;;5068591;28;20654;-70
2024/01/30 03:50:35;;;;;;;18.73;10.30;;;0.20;99.90;;;;;;5067740;28;20556;-70
2024/01/30 03:53:03;;;;;;;20.48;11.77;;;0.20;99.90;;;;;;5068943;28;20211;-72
2024/01/30 03:55:31;;;;;;;18.60;10.05;;;0.20;99.90;;;;;;5069480;28;20201;-71
2024/01/30 03:57:59;;;;;;;15.05;9.68;;;0.40;99.90;;;;;;5070681;28;20209;-70
2024/01/30 04:00:26;;;;;;;16.60;8.88;;;0.40;99.90;;;;;;5068915;28;20219;-71
2024/01/30 04:02:54;;;;;;;18.23;9.10;;;0.50;99.90;;;;;;5072433;28;20206;-70
2024/01/30 04:05:25;;;;;;;18.25;9.85;;;0.50;99.90;;;;;;5072245;28;20230;-71
2024/01/30 04:07:53;;;;;;;14.65;9.15;;;0.50;99.90;;;;;;5067954;28;20597;-70
2024/01/30 04:10:21;;;;;;;18.95;10.63;;;0.50;99.90;;;;;;5067913;28;20296;-70
2024/01/30 04:12:49;;;;;;;17.85;9.45;;;0.50;99.90;;;;;;5067935;28;20220;-71
2024/01/30 04:15:17;;;;;;;14.73;8.63;;;0.40;99.90;;;;;;5070236;28;20236;-69
2024/01/30 04:17:45;;;;;;;16.15;8.30;;;0.40;99.90;;;;;;5082688;28;20220;-71
2024/01/30 04:20:16;;;;;;;20.02;10.68;;;0.30;99.90;;;;;;5083761;28;20252;-70
2024/01/30 04:22:46;;;;;;;19.77;10.18;;;0.20;99.90;;;;;;5092568;28;20218;-71
2024/01/30 04:25:14;;;;;;;15.35;8.18;;;0.30;99.90;;;;;;5077224;28;20747;-70
2024/01/30 04:27:42;;;;;;;17.45;8.55;;;0.30;99.90;;;;;;5068071;28;20294;-70
2024/01/30 04:30:11;;;;;;;14.95;8.50;;;0.30;99.90;;;;;;5067996;28;20225;-71
2024/01/30 04:32:39;;;;;;;16.33;8.43;;;0.30;99.90;;;;;;5067889;28;20200;-71
2024/01/30 04:35:08;;;;;;;15.55;8.20;;;0.30;99.90;;;;;;5068366;28;20263;-71
2024/01/30 04:37:39;;;;;;;19.10;9.50;;;0.20;99.90;;;;;;5068559;28;20205;-71
2024/01/30 04:40:09;;;;;;;17.83;8.68;;;0.20;99.90;;;;;;5068437;28;20222;-71
2024/01/30 04:42:37;;;;;;;17.50;8.82;;;0.20;99.90;;;;;;5070536;28;20317;-71
2024/01/30 04:45:07;;;;;;;17.88;9.70;;;0.10;99.90;;;;;;5085542;28;20277;-70
2024/01/30 04:47:35;;;;;;;16.60;8.13;;;0.20;99.90;;;;;;5093297;28;20244;-71
2024/01/30 04:50:04;;;;;;;15.48;8.77;;;0.30;99.90;;;;;;5093132;28;20231;-71
2024/01/30 04:52:33;;;;;;;21.08;8.90;;;0.40;99.90;;;;;;5093630;28;20200;-70
2024/01/30 04:55:00;;;;;;;17.30;8.88;;;0.40;99.90;;;;;;5094584;28;20189;-71
2024/01/30 04:57:30;;;;;;;15.43;8.48;;;0.40;99.90;;;;;;5094382;28;20207;-70
2024/01/30 04:59:58;;;;;;;14.30;7.40;;;0.30;99.90;;;;;;5093020;28;20221;-69
2024/01/30 05:02:26;;;;;;;14.60;7.57;;;0.20;99.90;;;;;;5091359;28;20213;-71
2024/01/30 05:04:54;;;;;;;15.30;8.88;;;0.10;99.90;;;;;;5092418;28;20285;-71
2024/01/30 05:07:22;;;;;;;19.65;10.30;;;0.20;99.90;;;;;;5091862;28;20211;-71
2024/01/30 05:09:49;;;;;;;19.08;9.70;;;0.30;99.90;;;;;;5083591;28;20626;-70
2024/01/30 05:12:17;;;;;;;17.90;8.63;;;0.40;99.90;;;;;;5081124;28;20220;-70
2024/01/30 05:14:46;;;;;;;20.20;9.63;;;0.40;99.90;;;;;;5074741;28;20210;-71
2024/01/30 05:17:14;;;;;;;18.35;9.30;;;0.40;99.90;;;;;;5073677;28;20229;-71
2024/01/30 05:19:44;;;;;;;18.98;9.85;;;0.30;99.90;;;;;;5073060;28;20308;-71
2024/01/30 05:22:15;;;;;;;19.00;10.15;;;0.40;99.90;;;;;;5071423;28;20693;-71
2024/01/30 05:24:43;;;;;;;19.80;10.70;;;0.30;99.90;;;;;;5072254;28;20214;-70
2024/01/30 05:27:13;;;;;;;19.73;10.45;;;0.40;99.90;;;;;;5073157;28;20205;-71
2024/01/30 05:29:41;;;;;;;19.48;11.10;;;0.50;99.90;;;;;;5071725;28;20264;-70
2024/01/30 05:32:10;;;;;;;16.58;10.05;;;0.60;99.90;;;;;;5069933;28;20348;-72
2024/01/30 05:34:38;;;;;;;18.48;11.05;;;0.60;99.90;;;;;;5070990;28;20666;-71
2024/01/30 05:37:07;;;;;;;21.25;10.57;;;0.60;99.90;;;;;;5071031;28;20216;-71
2024/01/30 05:39:35;;;;;;;18.42;9.85;;;0.50;99.90;;;;;;5070338;28;20231;-71
2024/01/30 05:42:03;;;;;;;19.02;10.20;;;0.50;99.90;;;;;;5067265;28;20264;-71
2024/01/30 05:44:31;;;;;;;18.20;10.50;;;0.40;99.90;;;;;;5069996;28;20214;-71
2024/01/30 05:46:59;;;;;;;18.42;10.18;;;0.40;99.90;;;;;;5069956;28;20229;-70
2024/01/30 05:49:28;;;;;;;18.05;8.90;;;0.40;99.90;;;;;;5071496;28;20652;-71
2024/01/30 05:51:56;;;;;;;15.82;8.93;;;0.40;99.90;;;;;;5070315;28;20225;-71
2024/01/30 05:54:24;;;;;;;18.77;9.70;;;0.40;99.90;;;;;;5070866;28;20618;-72
2024/01/30 05:56:52;;;;;;;17.73;9.55;;;0.40;99.90;;;;;;5070915;28;20301;-71
2024/01/30 05:59:20;;;;;;;17.38;10.18;;;0.50;99.90;;;;;;5070377;28;20487;-71
2024/01/30 06:01:48;;;;;;;20.23;10.32;;;0.60;99.90;;;;;;5068649;28;20202;-71
2024/01/30 06:04:17;;;;;;;20.08;9.10;;;0.60;99.90;;;;;;5069449;28;20285;-70
2024/01/30 06:06:46;;;;;;;20.40;11.18;;;0.60;99.90;;;;;;5069388;28;20226;-71
2024/01/30 06:09:14;;;;;;;20.45;10.65;;;0.60;99.90;;;;;;5070178;28;20638;-71
2024/01/30 06:11:42;;;;;;;20.08;11.43;;;0.50;99.90;;;;;;5069407;28;20306;-71
2024/01/30 06:14:10;;;;;;;17.60;9.23;;;0.60;99.90;;;;;;5069687;28;20205;-70
2024/01/30 06:16:38;;;;;;;20.80;11.43;;;0.70;99.90;;;;;;5069235;28;20257;-71
2024/01/30 06:19:12;;;;;;;18.30;10.95;;;0.60;99.90;;;;;;5068700;28;20238;-71
2024/01/30 06:21:40;;;;;;;19.52;11.68;;;0.50;99.90;;;;;;5067345;28;20217;-71
2024/01/30 06:24:09;;;;;;;21.83;10.40;;;0.50;99.90;;;;;;5068077;28;20201;-71
2024/01/30 06:26:37;;;;;;;18.65;10.48;;;0.40;99.90;;;;;;5068782;28;20227;-71
2024/01/30 06:29:05;;;;;;;18.83;12.20;;;0.40;99.90;;;;;;5068538;28;20273;-74
2024/01/30 06:31:33;;;;;;;21.15;11.38;;;0.30;99.90;;;;;;5067478;28;20593;-70
2024/01/30 06:34:01;;;;;;;21.85;10.65;;;0.30;99.90;;;;;;5067834;28;20216;-71
2024/01/30 06:36:29;;;;;;;24.33;12.00;;;0.30;99.90;;;;;;5068549;28;20243;-71
2024/01/30 06:38:57;;;;;;;21.10;10.53;;;0.30;99.90;;;;;;5069219;28;20264;-71
2024/01/30 06:41:27;;;;;;;20.70;10.80;;;0.30;99.90;;;;;;5067738;28;20527;-72
2024/01/30 06:43:55;;;;;;;16.88;9.35;;;0.30;99.90;;;;;;5067356;28;20273;-71
2024/01/30 06:46:23;;;;;;;20.40;10.18;;;0.30;99.90;;;;;;5068632;28;20326;-72
2024/01/30 06:48:51;;;;;;;22.15;11.27;;;0.30;99.90;;;;;;5068025;28;20277;-72
2024/01/30 06:51:19;;;;;;;20.45;10.75;;;0.30;99.90;;;;;;5067232;28;20259;-72
2024/01/30 06:53:46;;;;;;;25.70;9.48;;;0.30;99.90;;;;;;5066934;28;20688;-71
2024/01/30 06:56:14;;;;;;;17.17;10.02;;;0.40;99.90;;;;;;5067131;28;20256;-70
2024/01/30 06:58:44;;;;;;;17.98;9.50;;;0.40;99.90;;;;;;5067567;28;20317;-72
2024/01/30 07:01:12;;;;;;;18.70;10.25;;;0.30;99.90;;;;;;5066522;28;20336;-71
2024/01/30 07:03:40;;;;;;;18.98;10.05;;;0.30;99.90;;;;;;5066857;28;20211;-71
2024/01/30 07:06:08;;;;;;;20.83;10.90;;;0.40;99.90;;;;;;5066802;28;20222;-71
2024/01/30 07:08:37;;;;;;;18.55;10.98;;;0.50;99.90;;;;;;5066871;28;20237;-72
2024/01/30 07:11:05;;;;;;;18.58;10.40;;;0.60;99.90;;;;;;5065810;28;20665;-71
2024/01/30 07:13:33;;;;;;;18.88;11.05;;;0.60;99.90;;;;;;5066108;28;20246;-70
2024/01/30 07:16:07;;;;;;;19.52;10.25;;;0.70;99.90;;;;;;5066049;28;20645;-71
2024/01/30 07:18:35;;;;;;;17.02;10.45;;;0.70;99.90;;;;;;5068064;28;20233;-71
2024/01/30 07:21:04;;;;;;;19.52;10.25;;;0.70;99.90;;;;;;5067642;28;20248;-71
2024/01/30 07:23:33;;;;;;;18.25;10.27;;;0.70;99.90;;;;;;5068297;28;20217;-71
2024/01/30 07:26:02;;;;;;;22.67;11.10;;;0.70;99.90;;;;;;5067950;28;20282;-71
2024/01/30 07:28:30;;;;;;;20.88;11.52;;;0.70;99.90;;;;;;5066797;28;20565;-71
2024/01/30 07:30:58;;;;;;;22.45;11.88;;;0.70;99.90;;;;;;5066389;28;20215;-71
2024/01/30 07:33:27;;;;;;;18.05;10.93;;;0.70;99.90;;;;;;5066333;28;20238;-71
2024/01/30 07:35:55;;;;;;;19.00;11.40;;;0.80;99.90;;;;;;5067034;28;20220;-71
2024/01/30 07:38:23;;;;;;;19.48;9.50;;;0.80;99.90;;;;;;5066975;28;20237;-71
2024/01/30 07:40:51;;;;;;;20.92;8.98;;;0.80;99.90;;;;;;5066078;28;20212;-72
2024/01/30 07:43:20;;;;;;;17.58;8.40;;;0.90;99.90;;;;;;5066030;28;20206;-72
2024/01/30 07:45:48;;;;;;;20.67;9.80;;;0.90;99.90;;;;;;5066751;28;20596;-70
2024/01/30 07:48:16;;;;;;;17.45;8.10;;;1.10;99.90;;;;;;5066594;28;21121;-71
2024/01/30 07:50:45;;;;;;;17.02;9.95;;;1.10;99.90;;;;;;5065958;28;20299;-71
2024/01/30 07:53:13;;;;;;;17.40;8.10;;;1.10;99.90;;;;;;5066191;28;20226;-71
2024/01/30 07:55:43;;;;;;;16.50;8.10;;;1.20;99.90;;;;;;5065596;28;20803;-71
2024/01/30 07:58:11;;;;;;;20.33;9.45;;;1.30;99.90;;;;;;5067947;28;20482;-71
2024/01/30 08:00:39;;;;;;;16.10;8.23;;;1.40;99.90;;;;;;5067128;28;20222;-70
2024/01/30 08:03:07;;;;;;;19.60;11.23;;;1.40;99.90;;;;;;5066796;28;20204;-71
2024/01/30 08:05:35;;;;;;;15.95;8.95;;;1.40;99.90;;;;;;5066373;28;20211;-70
2024/01/30 08:08:05;;;;;;;25.05;14.40;;;1.50;99.90;;;;;;5066739;28;20650;-73
2024/01/30 08:10:33;;;;;;;29.23;13.57;;;1.70;99.90;;;;;;5066029;28;20218;-73
2024/01/30 08:13:01;;;;;;;19.00;11.10;;;1.80;99.90;;;;;;5065662;28;20461;-74
2024/01/30 08:15:29;;;;;;;19.43;10.57;;;1.90;99.90;;;;;;5065699;28;20446;-73
2024/01/30 08:17:58;;;;;;;17.33;10.00;;;2.00;99.90;;;;;;5066361;28;20439;-73
2024/01/30 08:20:28;;;;;;;19.03;10.20;;;2.20;99.90;;;;;;5065372;28;20526;-74
2024/01/30 08:22:57;;;;;;;25.33;12.53;;;2.40;99.90;;;;;;5066371;28;20449;-73
2024/01/30 08:25:26;;;;;;;20.50;10.33;;;2.60;99.90;;;;;;5066635;28;20441;-73
2024/01/30 08:27:57;;;;;;;15.43;9.20;;;2.80;99.90;;;;;;5066519;28;20474;-73
2024/01/30 08:30:26;;;;;;;17.80;9.90;;;3.10;99.90;;;;;;5065390;28;20445;-71
2024/01/30 08:32:54;;;;;;;19.80;11.40;;;3.30;99.90;;;;;;5065967;28;20451;-73
2024/01/30 08:35:22;;;;;;;18.90;10.40;;;3.50;99.90;;;;;;5066857;28;20528;-74
2024/01/30 08:37:50;;;;;;;20.97;11.00;;;3.80;99.90;;;;;;5067140;28;20538;-73
2024/01/30 08:40:18;;;;;;;20.10;10.50;;;4.00;99.90;;;;;;5066501;28;21387;-73
2024/01/30 08:42:47;;;;;;;20.20;9.90;;;4.30;99.90;;;;;;5067095;28;20448;-73
2024/01/30 08:45:24;;;;;;;26.83;10.70;;;4.50;99.90;;;;;;5066160;28;20493;-73
2024/01/30 08:47:52;;;;;;;16.53;10.30;;;4.60;99.90;;;;;;5070901;28;20480;-73
2024/01/30 08:50:22;;;;;;;14.37;8.80;;;4.50;99.90;;;;;;5067526;28;20474;-73
2024/01/30 08:52:50;;;;;;;17.60;10.10;;;4.50;99.90;;;;;;5067321;28;20456;-73
2024/01/30 08:55:18;;;;;;;44.23;31.00;;;4.60;99.90;;;;;;5065874;28;21269;-73
2024/01/30 08:57:48;;;;;;;27.67;19.07;;;4.70;99.90;;;;;;5066169;28;20444;-74
2024/01/30 09:00:17;;;;;;;28.47;20.10;;;4.90;99.90;;;;;;5065600;28;20542;-73
2024/01/30 09:02:44;;;;;;;21.83;14.07;;;5.00;99.90;;;;;;5065945;28;20449;-71
2024/01/30 09:05:13;;;;;;;20.97;11.13;;;5.10;99.90;;;;;;5066052;28;20970;-71
2024/01/30 09:07:41;;;;;;;16.20;10.40;;;5.00;99.90;;;;;;5066045;28;21003;-72
2024/01/30 09:10:15;;;;;;;15.90;9.70;;;4.90;99.90;;;;;;5065674;28;20545;-72
2024/01/30 09:12:49;;;;;;;15.50;9.30;;;4.90;99.90;;;;;;5065472;28;20457;-71
2024/01/30 09:15:17;;;;;;;15.63;8.80;;;4.90;99.90;;;;;;5065845;28;21140;-71
2024/01/30 09:17:45;;;;;;;16.23;8.43;;;5.00;99.90;;;;;;5066168;28;20447;-72
2024/01/30 09:20:13;;;;;;;16.30;9.43;;;5.10;99.90;;;;;;5065464;28;20476;-72
2024/01/30 09:22:41;;;;;;;14.40;8.23;;;5.20;99.90;;;;;;5064930;28;20921;-73
2024/01/30 09:25:09;;;;;;;16.17;8.93;;;5.40;99.90;;;;;;5065464;28;20462;-72
2024/01/30 09:27:37;;;;;;;18.63;9.70;;;5.60;99.90;;;;;;5065931;28;20516;-72
2024/01/30 09:30:08;;;;;;;18.20;10.60;;;5.80;99.90;;;;;;5065886;28;20463;-72
2024/01/30 09:32:36;;;;;;;21.13;12.50;;;6.00;99.90;;;;;;5064899;28;20529;-72
2024/01/30 09:35:05;;;;;;;20.30;10.73;;;6.20;99.90;;;;;;5065445;28;20531;-72
2024/01/30 09:37:34;;;;;;;16.57;10.77;;;6.40;99.90;;;;;;5065759;28;20899;-72
2024/01/30 09:40:03;;;;;;;17.77;10.43;;;6.50;99.90;;;;;;5065374;28;21047;-72
2024/01/30 09:42:35;;;;;;;18.90;10.70;;;6.80;99.90;;;;;;5064688;28;20526;-72
2024/01/30 09:45:04;;;;;;;18.93;10.13;;;7.20;99.90;;;;;;5061079;28;20437;-71
2024/01/30 09:47:42;;;;;;;16.83;10.23;;;7.50;99.90;;;;;;5065603;28;20471;-72
2024/01/30 09:50:11;;;;;;;15.77;10.37;;;7.80;99.90;;;;;;5064970;28;21186;-71
2024/01/30 09:52:41;;;;;;;15.90;10.30;;;8.10;99.90;;;;;;5064550;28;21025;-71
2024/01/30 09:55:10;;;;;;;18.53;11.17;;;8.30;99.90;;;;;;5066534;28;20504;-70
2024/01/30 09:57:39;;;;;;;37.23;24.53;;;8.50;99.90;;;;;;5068127;28;20456;-71
2024/01/30 10:00:08;;;;;;;26.43;16.47;;;8.40;99.90;;;;;;5069851;28;20503;-70
2024/01/30 10:02:39;;;;;;;19.03;10.90;;;8.30;99.90;;;;;;5069210;28;20445;-72
2024/01/30 10:05:08;;;;;;;17.80;10.77;;;8.20;99.90;;;;;;5074618;28;20437;-72
2024/01/30 10:07:36;;;;;;;17.00;10.47;;;8.40;99.90;;;;;;5068549;28;20522;-72
2024/01/30 10:10:06;;;;;;;17.30;10.80;;;8.40;99.90;;;;;;5069070;28;20802;-72
2024/01/30 10:12:35;;;;;;;17.67;8.80;;;8.60;99.90;;;;;;5068257;28;20459;-70
2024/01/30 10:15:03;;;;;;;16.70;10.30;;;8.70;99.90;;;;;;5068284;28;20535;-72
2024/01/30 10:17:31;;;;;;;19.43;11.70;;;9.10;99.90;;;;;;5068912;28;20539;-71
2024/01/30 10:20:05;;;;;;;19.20;11.63;;;9.10;99.90;;;;;;5068246;28;20458;-71
2024/01/30 10:22:34;;;;;;;16.70;10.90;;;9.20;99.90;;;;;;5067551;28;20495;-71
2024/01/30 10:25:02;;;;;;;17.33;9.90;;;9.30;99.90;;;;;;5067040;28;20450;-71
2024/01/30 10:27:33;;;;;;;18.67;10.90;;;9.50;99.90;;;;;;5069378;28;20924;-71
2024/01/30 10:30:03;;;;;;;17.43;11.07;;;9.80;99.90;;;;;;5068952;28;20491;-70
2024/01/30 10:32:31;;;;;;;19.30;12.10;;;9.90;99.90;;;;;;5068487;28;20456;-71
2024/01/30 10:34:59;;;;;;;21.63;13.30;;;10.10;99.00;;;;;;5068747;28;20441;-71
2024/01/30 10:37:32;;;;;;;18.20;11.93;;;10.00;98.50;;;;;;5068723;28;20495;-71
2024/01/30 10:40:05;;;;;;;20.97;12.90;;;9.90;98.60;;;;;;5068025;28;20480;-71
2024/01/30 10:42:33;;;;;;;19.30;12.40;;;9.90;98.50;;;;;;5067133;28;20455;-71
2024/01/30 10:45:08;;;;;;;20.67;12.50;;;10.00;98.20;;;;;;5063937;28;20497;-72
2024/01/30 10:47:37;;;;;;;17.97;11.43;;;10.00;98.80;;;;;;5067736;28;21335;-71
2024/01/30 10:50:07;;;;;;;19.13;11.73;;;10.00;98.20;;;;;;5067352;28;20536;-70
2024/01/30 10:52:37;;;;;;;19.73;11.40;;;10.00;98.70;;;;;;5065938;28;20443;-70
2024/01/30 10:55:07;;;;;;;16.63;10.63;;;10.00;98.00;;;;;;5058711;28;20482;-72
2024/01/30 10:57:36;;;;;;;17.07;11.43;;;10.10;98.70;;;;;;5067912;28;20497;-71
2024/01/30 11:00:10;;;;;;;18.27;10.90;;;10.00;98.70;;;;;;5067059;28;20526;-72
2024/01/30 11:02:39;;;;;;;17.50;10.83;;;10.00;97.80;;;;;;5062945;28;20447;-73
2024/01/30 11:05:10;;;;;;;19.57;10.77;;;10.10;96.30;;;;;;5068003;28;20463;-72
2024/01/30 11:07:40;;;;;;;18.37;10.37;;;10.00;96.90;;;;;;5057475;28;20444;-73
2024/01/30 11:10:12;;;;;;;19.37;10.30;;;10.20;97.50;;;;;;5065325;28;20463;-73
2024/01/30 11:12:43;;;;;;;20.43;10.37;;;10.30;97.80;;;;;;5058301;28;20454;-73
2024/01/30 11:15:13;;;;;;;16.40;10.47;;;10.50;95.50;;;;;;5056141;28;20443;-72
2024/01/30 11:17:43;;;;;;;16.47;9.97;;;10.60;94.70;;;;;;5067272;28;20431;-72
2024/01/30 11:20:14;;;;;;;16.67;10.37;;;10.60;93.70;;;;;;5066909;28;20461;-72
2024/01/30 11:22:46;;;;;;;20.77;11.73;;;10.60;96.60;;;;;;5058768;28;20433;-72
2024/01/30 11:25:16;;;;;;;17.23;10.07;;;10.60;97.50;;;;;;5067220;28;20470;-72
2024/01/30 11:27:46;;;;;;;17.13;10.10;;;10.70;98.20;;;;;;5067127;28;20441;-72
2024/01/30 11:30:22;;;;;;;20.97;10.40;;;10.70;98.30;;;;;;5066961;28;20467;-73
2024/01/30 11:33:05;;;;;;;16.77;10.27;;;10.70;97.00;;;;;;5065512;28;20530;-72
2024/01/30 11:35:35;;;;;;;16.33;9.93;;;10.70;96.50;;;;;;5069436;28;20779;-72
2024/01/30 11:38:05;;;;;;;19.40;11.10;;;10.60;97.60;;;;;;5066670;28;20482;-72
2024/01/30 11:40:35;;;;;;;21.03;11.43;;;10.70;97.70;;;;;;5065850;28;20451;-71
2024/01/30 11:43:04;;;;;;;20.10;10.97;;;10.90;96.30;;;;;;5066345;28;20438;-69
2024/01/30 11:45:33;;;;;;;17.63;10.60;;;10.90;96.70;;;;;;5066895;28;21178;-70
2024/01/30 11:48:03;;;;;;;18.37;11.27;;;11.00;96.40;;;;;;5066738;28;20478;-71
2024/01/30 11:50:32;;;;;;;18.80;10.90;;;11.20;95.70;;;;;;5066010;28;20497;-71
2024/01/30 11:53:03;;;;;;;23.60;11.60;;;11.30;95.50;;;;;;5066096;28;20440;-71
2024/01/30 11:55:32;;;;;;;26.63;13.93;;;11.50;96.00;;;;;;5065991;28;20439;-70
2024/01/30 11:58:04;;;;;;;20.90;11.60;;;11.60;95.50;;;;;;5066633;28;20945;-71
2024/01/30 12:00:33;;;;;;;18.80;11.77;;;11.70;95.70;;;;;;5065906;28;20499;-71
2024/01/30 12:03:02;;;;;;;20.97;10.80;;;11.80;94.40;;;;;;5066388;28;20445;-72
2024/01/30 12:05:31;;;;;;;17.13;10.37;;;11.80;95.30;;;;;;5067236;28;20448;-71
2024/01/30 12:07:59;;;;;;;15.77;9.87;;;11.80;95.20;;;;;;5067092;28;21019;-70
2024/01/30 12:10:30;;;;;;;17.97;11.93;;;11.80;95.40;;;;;;5066905;28;20489;-71
2024/01/30 12:13:02;;;;;;;19.20;11.20;;;11.80;95.10;;;;;;5066913;28;20458;-74
2024/01/30 12:15:30;;;;;;;18.70;13.70;;;11.70;94.60;;;;;;5067436;28;20532;-72
2024/01/30 12:18:06;;;;;;;19.90;14.13;;;11.80;94.90;;;;;;5067320;28;20447;-72
2024/01/30 12:20:34;;;;;;;17.67;11.23;;;11.90;95.10;;;;;;5064225;28;20452;-71
2024/01/30 12:23:02;;;;;;;18.43;11.30;;;11.90;94.00;;;;;;5065149;28;21294;-70
2024/01/30 12:25:32;;;;;;;18.60;11.10;;;11.80;94.20;;;;;;5065402;28;20451;-71
2024/01/30 12:28:00;;;;;;;19.80;10.10;;;11.70;94.90;;;;;;5065524;28;20487;-71
2024/01/30 12:30:29;;;;;;;15.60;10.20;;;11.70;94.80;;;;;;5064467;28;20482;-71
2024/01/30 12:33:05;;;;;;;15.33;9.77;;;11.80;95.00;;;;;;5064266;28;20443;-71
2024/01/30 12:35:33;;;;;;;16.60;9.47;;;11.90;95.10;;;;;;5065541;28;21164;-71
2024/01/30 12:38:04;;;;;;;16.43;10.67;;;11.80;94.70;;;;;;5065358;28;20444;-71
2024/01/30 12:40:34;;;;;;;15.80;10.73;;;11.90;94.40;;;;;;5065119;28;20442;-71
2024/01/30 12:43:04;;;;;;;17.80;10.20;;;11.90;95.40;;;;;;5063616;28;20438;-71
2024/01/30 12:45:32;;;;;;;18.23;11.90;;;12.00;93.50;;;;;;5064942;28;20441;-70
2024/01/30 12:48:00;;;;;;;18.13;10.87;;;11.70;93.10;;;;;;5066016;28;20437;-71